Time;durP1;ratioP1;P1;durP2;ratioP2;P2;SDS_P1;SDS_P2;PMS_P1;PMS_P2;Temp;Humidity;BMP_temperature;BMP_pressure;BME280_temperature;BME280_humidity;BME280_pressure;Samples;Min_cycle;Max_cycle;Signal;HPM_P1;HPM_P2
2023/01/14 00:02:18;;;;;;;;;;;17.40;58.00;;;;;;5042862;28;43174;-80
2023/01/14 00:04:44;;;;;;;;;;;17.40;58.00;;;;;;5040588;28;43002;-78
2023/01/14 00:07:09;;;;;;;;;;;17.40;58.20;;;;;;5042214;28;43009;-80
2023/01/14 00:09:35;;;;;;;;;;;17.40;58.10;;;;;;5035609;28;43183;-81
2023/01/14 00:12:00;;;;;;;;;;;17.40;58.10;;;;;;5026847;28;42972;-78
2023/01/14 00:14:30;;;;;;;;;;;17.40;58.20;;;;;;5034060;28;42970;-78
2023/01/14 00:16:56;;;;;;;;;;;17.40;58.20;;;;;;5045173;28;43010;-78
2023/01/14 00:19:22;;;;;;;;;;;17.40;58.20;;;;;;5042591;28;42971;-78
2023/01/14 00:21:48;;;;;;;;;;;17.30;58.80;;;;;;5044538;28;43521;-80
2023/01/14 00:24:14;;;;;;;;;;;17.30;58.30;;;;;;5045120;28;42920;-80
2023/01/14 00:26:40;;;;;;;;;;;17.40;58.30;;;;;;5044711;28;42958;-80
2023/01/14 00:29:06;;;;;;;;;;;17.30;58.80;;;;;;5044722;28;43073;-79
2023/01/14 00:31:31;;;;;;;;;;;17.30;58.40;;;;;;5044263;28;43082;-79
2023/01/14 00:33:58;;;;;;;;;;;17.30;58.40;;;;;;5043679;28;42997;-79
2023/01/14 00:36:24;;;;;;;;;;;17.30;58.40;;;;;;5045014;28;43386;-79
2023/01/14 00:38:51;;;;;;;;;;;17.30;58.40;;;;;;5043530;28;43352;-79
2023/01/14 00:41:17;;;;;;;;;;;17.30;58.50;;;;;;5026241;28;43683;-78
2023/01/14 00:43:44;;;;;;;;;;;17.30;58.50;;;;;;5038950;28;43693;-79
2023/01/14 00:46:11;;;;;;;;;;;17.30;58.60;;;;;;5043522;28;43588;-79
2023/01/14 00:48:37;;;;;;;;;;;17.30;58.60;;;;;;5045144;28;43106;-79
2023/01/14 00:51:03;;;;;;;;;;;17.30;58.60;;;;;;5043308;28;43690;-80
2023/01/14 00:53:28;;;;;;;;;;;17.30;58.60;;;;;;5044589;28;42997;-79
2023/01/14 00:55:54;;;;;;;;;;;17.30;58.70;;;;;;5043759;28;42955;-78
2023/01/14 00:58:20;;;;;;;;;;;17.30;58.70;;;;;;5044418;28;42923;-80
2023/01/14 01:00:45;;;;;;;;;;;17.30;58.80;;;;;;5043244;28;42991;-80
2023/01/14 01:03:12;;;;;;;;;;;17.30;58.80;;;;;;5044832;28;43296;-78
2023/01/14 01:05:37;;;;;;;;;;;17.30;58.90;;;;;;5040894;28;43717;-80
2023/01/14 01:08:04;;;;;;;;;;;17.30;58.90;;;;;;5044502;28;42916;-78
2023/01/14 01:10:30;;;;;;;;;;;17.30;59.00;;;;;;5044502;28;42921;-78
2023/01/14 01:12:55;;;;;;;;;;;17.30;59.10;;;;;;5044356;28;42900;-78
2023/01/14 01:15:21;;;;;;;;;;;17.30;59.30;;;;;;5044019;28;43444;-79
2023/01/14 01:17:46;;;;;;;;;;;17.30;59.30;;;;;;5044097;28;43176;-81
2023/01/14 01:20:12;;;;;;;;;;;17.30;59.40;;;;;;5043032;28;42970;-78
2023/01/14 01:22:37;;;;;;;;;;;17.30;59.50;;;;;;5036675;28;43021;-80
2023/01/14 01:25:03;;;;;;;;;;;17.30;59.40;;;;;;5025739;28;42973;-79
2023/01/14 01:27:29;;;;;;;;;;;17.40;59.50;;;;;;5032375;28;43024;-78
2023/01/14 01:29:54;;;;;;;;;;;17.30;59.50;;;;;;5043202;28;43180;-80
2023/01/14 01:32:20;;;;;;;;;;;17.30;59.70;;;;;;5040729;28;43173;-78
2023/01/14 01:34:45;;;;;;;;;;;17.30;59.80;;;;;;5042062;28;42946;-79
2023/01/14 01:37:10;;;;;;;;;;;17.30;59.80;;;;;;5043683;28;43314;-81
2023/01/14 01:39:36;;;;;;;;;;;17.30;60.00;;;;;;5041486;28;43608;-80
2023/01/14 01:42:02;;;;;;;;;;;17.30;60.10;;;;;;5042914;28;42915;-80
2023/01/14 01:44:27;;;;;;;;;;;17.30;60.40;;;;;;5041778;28;43866;-81
2023/01/14 01:46:53;;;;;;;;;;;17.30;60.50;;;;;;5043552;28;42939;-79
2023/01/14 01:49:27;;;;;;;;;;;17.20;60.50;;;;;;5042034;28;43017;-80
2023/01/14 01:51:55;;;;;;;;;;;17.30;60.50;;;;;;5043345;28;42987;-81
2023/01/14 01:54:24;;;;;;;;;;;17.30;60.70;;;;;;5043110;28;43722;-80
2023/01/14 01:56:50;;;;;;;;;;;17.30;60.80;;;;;;5043063;28;43076;-81
2023/01/14 01:59:19;;;;;;;;;;;17.30;60.80;;;;;;5042957;28;42989;-79
2023/01/14 02:01:45;;;;;;;;;;;17.30;60.90;;;;;;5041884;28;42975;-78
2023/01/14 02:04:11;;;;;;;;;;;17.30;60.90;;;;;;5041631;28;43598;-78
2023/01/14 02:06:37;;;;;;;;;;;17.30;61.10;;;;;;5041073;28;43242;-79
2023/01/14 02:09:02;;;;;;;;;;;17.30;61.10;;;;;;5043060;28;43786;-79
2023/01/14 02:11:34;;;;;;;;;;;17.30;61.10;;;;;;5042180;28;42974;-80
2023/01/14 02:14:02;;;;;;;;;;;17.30;61.10;;;;;;5033595;28;43577;-79
2023/01/14 02:16:40;;;;;;;;;;;17.40;61.20;;;;;;5042929;28;43172;-79
2023/01/14 02:19:28;;;;;;;;;;;17.40;61.20;;;;;;5043404;28;43823;-79
2023/01/14 02:22:11;;;;;;;;;;;17.40;61.20;;;;;;5042201;28;43219;-79
2023/01/14 02:24:46;;;;;;;;;;;17.40;61.20;;;;;;5041448;28;43008;-79
2023/01/14 02:27:20;;;;;;;;;;;17.40;61.20;;;;;;5041550;28;43115;-79
2023/01/14 02:29:54;;;;;;;;;;;17.40;61.20;;;;;;5039638;28;42911;-79
2023/01/14 02:32:28;;;;;;;;;;;17.30;61.30;;;;;;5046072;28;43860;-79
2023/01/14 02:35:00;;;;;;;;;;;17.40;61.20;;;;;;5034231;28;42968;-79
2023/01/14 02:37:27;;;;;;;;;;;17.40;61.30;;;;;;5046127;28;43003;-78
2023/01/14 02:40:02;;;;;;;;;;;17.30;61.10;;;;;;5045807;28;43533;-80
2023/01/14 02:45:42;;;;;;;;;;;17.30;61.50;;;;;;5036315;28;43551;-79
2023/01/14 02:48:08;;;;;;;;;;;17.30;61.80;;;;;;5031607;28;42926;-80
2023/01/14 02:50:34;;;;;;;;;;;17.30;61.80;;;;;;5045127;28;43321;-79
2023/01/14 02:53:06;;;;;;;;;;;17.30;61.90;;;;;;5046351;28;42823;-79
2023/01/14 02:55:33;;;;;;;;;;;17.30;62.00;;;;;;5044681;28;43620;-79
2023/01/14 02:58:11;;;;;;;;;;;17.30;62.30;;;;;;5045537;28;42745;-80
2023/01/14 03:00:51;;;;;;;;;;;17.30;62.30;;;;;;5044303;28;42952;-79
2023/01/14 03:03:17;;;;;;;;;;;17.30;62.40;;;;;;5045310;28;43010;-79
2023/01/14 03:06:04;;;;;;;;;;;17.30;62.40;;;;;;5045082;28;43641;-79
2023/01/14 03:08:41;;;;;;;;;;;17.20;62.40;;;;;;5045230;28;43094;-79
2023/01/14 03:11:07;;;;;;;;;;;17.30;62.50;;;;;;5045462;28;43584;-79
2023/01/14 03:13:44;;;;;;;;;;;17.20;62.40;;;;;;5044984;28;43009;-78
2023/01/14 03:16:10;;;;;;;;;;;17.20;62.40;;;;;;5044200;28;43697;-79
2023/01/14 03:18:50;;;;;;;;;;;17.20;62.40;;;;;;5045108;28;43083;-80
2023/01/14 03:21:20;;;;;;;;;;;17.30;62.40;;;;;;5044727;28;42978;-79
2023/01/14 03:23:57;;;;;;;;;;;17.30;62.40;;;;;;5044534;28;43007;-78
2023/01/14 03:26:24;;;;;;;;;;;17.20;62.40;;;;;;5044621;28;43351;-79
2023/01/14 03:28:50;;;;;;;;;;;17.30;62.40;;;;;;5044591;28;42946;-79
2023/01/14 03:31:18;;;;;;;;;;;17.30;62.50;;;;;;5045332;28;43400;-79
2023/01/14 03:33:47;;;;;;;;;;;17.30;62.50;;;;;;5045220;28;42949;-79
2023/01/14 03:36:13;;;;;;;;;;;17.30;62.70;;;;;;5044340;28;43083;-80
2023/01/14 03:38:38;;;;;;;;;;;17.30;62.60;;;;;;5044693;28;43174;-79
2023/01/14 03:41:05;;;;;;;;;;;17.20;62.60;;;;;;5044284;28;43087;-79
2023/01/14 03:43:43;;;;;;;;;;;17.30;62.70;;;;;;5043305;28;43183;-81
2023/01/14 03:46:09;;;;;;;;;;;17.30;62.80;;;;;;5044180;28;43058;-79
2023/01/14 03:48:35;;;;;;;;;;;17.30;62.80;;;;;;5044577;28;42825;-79
2023/01/14 03:51:03;;;;;;;;;;;17.20;62.90;;;;;;5044864;28;43076;-78
2023/01/14 03:53:33;;;;;;;;;;;17.20;63.00;;;;;;5044635;28;42994;-79
2023/01/14 03:56:14;;;;;;;;;;;17.20;62.90;;;;;;5044676;28;43578;-78
2023/01/14 03:58:43;;;;;;;;;;;17.30;63.10;;;;;;5044614;28;42954;-80
2023/01/14 04:01:11;;;;;;;;;;;17.30;63.10;;;;;;5026483;28;45171;-78
2023/01/14 04:03:37;;;;;;;;;;;17.30;63.00;;;;;;5044671;28;43163;-79
2023/01/14 04:06:03;;;;;;;;;;;17.30;63.10;;;;;;5039217;28;43624;-80
2023/01/14 04:08:28;;;;;;;;;;;17.30;63.20;;;;;;5036415;28;43031;-79
2023/01/14 04:10:54;;;;;;;;;;;17.20;63.20;;;;;;5027506;28;43241;-78
2023/01/14 04:16:04;;;;;;;;;;;17.20;63.30;;;;;;5028249;28;44317;-78
2023/01/14 04:18:29;;;;;;;;;;;17.20;63.50;;;;;;5030134;28;43054;-79
2023/01/14 04:20:55;;;;;;;;;;;17.30;63.60;;;;;;5031381;28;42896;-80
2023/01/14 04:23:20;;;;;;;;;;;17.20;63.70;;;;;;5042812;28;42842;-80
2023/01/14 04:25:46;;;;;;;;;;;17.90;64.30;;;;;;5029921;28;43554;-80
2023/01/14 04:28:12;;;;;;;;;;;17.20;63.90;;;;;;5044701;28;43523;-79
2023/01/14 04:30:37;;;;;;;;;;;17.30;63.90;;;;;;5043598;28;43007;-79
2023/01/14 04:33:03;;;;;;;;;;;17.20;64.00;;;;;;5030661;28;43213;-79
2023/01/14 04:35:28;;;;;;;;;;;17.20;64.30;;;;;;5028410;28;43997;-80
2023/01/14 04:37:54;;;;;;;;;;;17.20;64.20;;;;;;5024887;28;43003;-79
2023/01/14 04:40:22;;;;;;;;;;;17.20;64.30;;;;;;5036538;28;42983;-78
2023/01/14 04:42:49;;;;;;;;;;;17.30;64.20;;;;;;5037647;28;43169;-78
2023/01/14 04:45:15;;;;;;;;;;;17.30;64.30;;;;;;5023953;28;42963;-78
2023/01/14 04:47:40;;;;;;;;;;;17.20;64.30;;;;;;5023693;28;42937;-77
2023/01/14 04:52:50;;;;;;;;;;;17.20;64.40;;;;;;5013113;28;42934;-78
2023/01/14 04:55:16;;;;;;;;;;;17.20;64.30;;;;;;5027466;28;42962;-77
2023/01/14 04:57:42;;;;;;;;;;;17.20;64.30;;;;;;5027259;28;42870;-79
2023/01/14 05:00:08;;;;;;;;;;;17.20;64.30;;;;;;5026711;28;43424;-78
2023/01/14 05:02:34;;;;;;;;;;;17.20;64.30;;;;;;5025693;28;43059;-80
2023/01/14 05:04:59;;;;;;;;;;;17.20;64.30;;;;;;5035144;28;42975;-79
2023/01/14 05:07:24;;;;;;;;;;;17.20;64.40;;;;;;5037662;28;42977;-79
2023/01/14 05:09:50;;;;;;;;;;;17.20;64.50;;;;;;5024271;28;43443;-79
2023/01/14 05:12:16;;;;;;;;;;;17.20;64.60;;;;;;5024875;28;42979;-79
2023/01/14 05:14:41;;;;;;;;;;;17.10;64.50;;;;;;5025167;28;43559;-79
2023/01/14 05:17:07;;;;;;;;;;;17.20;64.70;;;;;;5038495;28;43514;-78
2023/01/14 05:19:32;;;;;;;;;;;17.20;64.80;;;;;;5044755;28;42990;-79
2023/01/14 05:21:58;;;;;;;;;;;17.20;64.70;;;;;;5029668;28;42917;-79
2023/01/14 05:24:23;;;;;;;;;;;17.20;64.70;;;;;;5034777;28;43484;-77
2023/01/14 05:26:49;;;;;;;;;;;17.20;64.50;;;;;;5029312;28;42930;-78
2023/01/14 05:29:14;;;;;;;;;;;17.10;64.60;;;;;;5026359;28;43635;-79
2023/01/14 05:31:40;;;;;;;;;;;17.20;64.80;;;;;;5024609;28;43106;-78
2023/01/14 05:34:05;;;;;;;;;;;17.20;64.50;;;;;;5026300;28;43391;-80
2023/01/14 05:36:31;;;;;;;;;;;17.20;64.70;;;;;;5038788;28;42915;-78
2023/01/14 05:38:56;;;;;;;;;;;17.20;64.70;;;;;;5038849;28;43748;-79
2023/01/14 05:41:22;;;;;;;;;;;17.20;64.70;;;;;;5043145;28;42921;-75
2023/01/14 05:46:31;;;;;;;;;;;17.20;64.20;;;;;;5033507;28;42761;-80
2023/01/14 05:48:57;;;;;;;;;;;17.20;64.20;;;;;;5039223;28;43435;-78
2023/01/14 05:51:22;;;;;;;;;;;17.20;64.10;;;;;;5022358;28;42868;-79
2023/01/14 05:53:48;;;;;;;;;;;17.20;64.30;;;;;;5021985;28;43219;-78
2023/01/14 05:56:13;;;;;;;;;;;17.20;64.10;;;;;;5032763;28;43019;-79
2023/01/14 05:58:39;;;;;;;;;;;17.20;64.30;;;;;;5027724;28;42941;-79
2023/01/14 06:06:38;;;;;;;;;;;17.20;64.20;;;;;;5020383;28;43865;-78
2023/01/14 06:09:10;;;;;;;;;;;17.20;64.20;;;;;;5014710;28;43060;-78
2023/01/14 06:11:39;;;;;;;;;;;17.20;64.20;;;;;;5016328;28;43046;-79
2023/01/14 06:14:05;;;;;;;;;;;17.20;64.10;;;;;;5019450;28;42987;-78
2023/01/14 06:16:38;;;;;;;;;;;17.20;64.20;;;;;;5011893;28;42809;-79
2023/01/14 06:19:04;;;;;;;;;;;17.30;64.00;;;;;;5019697;28;44541;-78
2023/01/14 06:21:30;;;;;;;;;;;17.30;63.70;;;;;;5015563;28;43089;-78
2023/01/14 06:23:56;;;;;;;;;;;17.30;64.50;;;;;;5022348;28;42955;-78
2023/01/14 06:26:27;;;;;;;;;;;17.30;63.90;;;;;;5015253;28;43199;-78
2023/01/14 06:28:54;;;;;;;;;;;17.30;64.00;;;;;;5016767;28;43414;-79
2023/01/14 06:31:19;;;;;;;;;;;17.30;64.00;;;;;;5022964;28;42905;-79
2023/01/14 06:33:45;;;;;;;;;;;17.30;64.20;;;;;;5023158;28;43655;-81
2023/01/14 06:36:12;;;;;;;;;;;17.20;64.20;;;;;;5024812;28;42952;-79
2023/01/14 06:38:38;;;;;;;;;;;17.20;64.30;;;;;;5018337;28;44252;-78
2023/01/14 06:41:04;;;;;;;;;;;17.20;64.30;;;;;;5036367;28;43589;-78
2023/01/14 06:43:30;;;;;;;;;;;17.20;64.30;;;;;;5024963;28;42998;-78
2023/01/14 06:45:56;;;;;;;;;;;17.20;64.30;;;;;;5015645;28;43090;-78
2023/01/14 06:48:22;;;;;;;;;;;17.20;64.30;;;;;;4997043;28;44698;-78
2023/01/14 06:50:47;;;;;;;;;;;17.20;64.30;;;;;;5008677;28;43055;-79
2023/01/14 06:53:13;;;;;;;;;;;17.20;64.20;;;;;;5017916;28;42776;-79
2023/01/14 06:55:38;;;;;;;;;;;17.20;64.30;;;;;;5021526;28;42894;-78
2023/01/14 06:58:04;;;;;;;;;;;17.20;64.20;;;;;;5022601;28;43721;-79
2023/01/14 07:00:29;;;;;;;;;;;17.20;64.20;;;;;;5014826;28;43155;-78
2023/01/14 07:02:55;;;;;;;;;;;17.20;64.30;;;;;;5015394;28;42906;-78
2023/01/14 07:05:21;;;;;;;;;;;17.20;64.50;;;;;;5037092;28;42863;-78
2023/01/14 07:07:47;;;;;;;;;;;17.20;64.50;;;;;;5044956;28;43287;-79
2023/01/14 07:10:12;;;;;;;;;;;17.20;64.50;;;;;;5044208;28;42998;-79
2023/01/14 07:12:38;;;;;;;;;;;17.20;64.40;;;;;;5038711;28;43392;-78
2023/01/14 07:15:04;;;;;;;;;;;17.20;64.40;;;;;;5036977;28;43155;-78
2023/01/14 07:17:29;;;;;;;;;;;17.20;64.50;;;;;;5038835;28;43410;-78
2023/01/14 07:19:54;;;;;;;;;;;17.20;64.30;;;;;;5041763;28;43219;-78
2023/01/14 07:22:20;;;;;;;;;;;17.20;64.50;;;;;;5040018;28;43581;-78
2023/01/14 07:24:45;;;;;;;;;;;17.20;64.40;;;;;;5042753;28;42951;-78
2023/01/14 07:27:11;;;;;;;;;;;17.20;64.40;;;;;;5044433;28;43656;-78
2023/01/14 07:29:37;;;;;;;;;;;17.20;64.40;;;;;;5044546;28;42885;-78
2023/01/14 07:32:02;;;;;;;;;;;17.20;64.40;;;;;;5047617;28;43644;-78
2023/01/14 07:34:28;;;;;;;;;;;17.20;64.40;;;;;;5044604;28;43044;-78
2023/01/14 07:36:53;;;;;;;;;;;17.20;64.50;;;;;;5026217;28;43121;-79
2023/01/14 07:39:19;;;;;;;;;;;17.30;64.60;;;;;;5046964;28;42948;-78
2023/01/14 07:41:44;;;;;;;;;;;17.20;64.50;;;;;;5046270;28;43536;-79
2023/01/14 07:44:10;;;;;;;;;;;17.20;64.50;;;;;;5047314;28;42974;-79
2023/01/14 07:46:35;;;;;;;;;;;17.30;64.50;;;;;;5045572;28;43489;-78
2023/01/14 07:49:01;;;;;;;;;;;17.20;64.50;;;;;;5043668;28;43000;-78
2023/01/14 07:51:26;;;;;;;;;;;17.30;64.40;;;;;;5033783;28;43058;-77
2023/01/14 07:53:52;;;;;;;;;;;17.20;64.40;;;;;;5027558;28;43614;-79
2023/01/14 07:56:17;;;;;;;;;;;17.20;64.70;;;;;;5019326;28;44842;-77
2023/01/14 07:58:43;;;;;;;;;;;17.30;65.10;;;;;;5041756;28;43277;-75
2023/01/14 08:01:09;;;;;;;;;;;17.20;51.90;;;;;;5040950;28;43199;-78
2023/01/14 08:03:34;;;;;;;;;;;16.90;46.20;;;;;;5038307;28;43029;-77
2023/01/14 08:06:01;;;;;;;;;;;16.60;45.20;;;;;;5040437;28;43001;-82
2023/01/14 08:08:27;;;;;;;;;;;16.30;44.10;;;;;;5040502;28;42899;-80
2023/01/14 08:10:53;;;;;;;;;;;16.10;44.80;;;;;;5034933;28;43079;-81
2023/01/14 08:13:18;;;;;;;;;;;16.10;48.50;;;;;;5037327;28;43231;-78
2023/01/14 08:15:44;;;;;;;;;;;16.10;51.80;;;;;;5041405;28;43780;-75
2023/01/14 08:18:09;;;;;;;;;;;16.20;54.20;;;;;;5037662;28;43996;-77
2023/01/14 08:20:35;;;;;;;;;;;16.30;54.00;;;;;;5043025;28;44194;-78
2023/01/14 08:23:00;;;;;;;;;;;16.40;54.80;;;;;;5043553;28;42924;-80
2023/01/14 08:25:27;;;;;;;;;;;16.40;50.40;;;;;;5041502;28;43206;-76
2023/01/14 08:27:53;;;;;;;;;;;16.30;45.80;;;;;;5037392;28;43073;-79
2023/01/14 08:30:18;;;;;;;;;;;16.20;43.80;;;;;;5040407;28;43911;-78
2023/01/14 08:32:44;;;;;;;;;;;16.00;42.40;;;;;;5036062;28;43155;-82
2023/01/14 08:35:09;;;;;;;;;;;15.90;43.40;;;;;;5037193;28;44113;-81
2023/01/14 08:37:35;;;;;;;;;;;15.90;42.50;;;;;;5039259;28;42984;-80
2023/01/14 08:40:00;;;;;;;;;;;16.00;42.60;;;;;;5023732;28;44555;-76
2023/01/14 08:42:26;;;;;;;;;;;16.10;42.70;;;;;;5042944;28;44217;-76
2023/01/14 08:44:52;;;;;;;;;;;16.20;42.00;;;;;;5036921;28;43041;-75
2023/01/14 08:47:18;;;;;;;;;;;16.30;42.00;;;;;;5042917;28;43089;-78
2023/01/14 08:49:43;;;;;;;;;;;16.20;41.50;;;;;;5026050;28;45346;-78
2023/01/14 08:52:09;;;;;;;;;;;16.40;41.50;;;;;;5039467;28;43296;-75
2023/01/14 08:54:34;;;;;;;;;;;16.40;41.30;;;;;;5043720;28;43968;-75
2023/01/14 08:57:00;;;;;;;;;;;16.40;41.30;;;;;;5043763;28;42925;-75
2023/01/14 08:59:25;;;;;;;;;;;16.40;41.40;;;;;;5046897;28;43071;-75
2023/01/14 09:01:51;;;;;;;;;;;16.40;41.30;;;;;;5043708;28;43156;-75
2023/01/14 09:04:17;;;;;;;;;;;16.40;41.40;;;;;;5049978;28;43264;-79
2023/01/14 09:17:39;;;;;;;;;;;16.40;41.30;;;;;;5046163;28;42978;-77
2023/01/14 09:20:08;;;;;;;;;;;16.40;41.40;;;;;;5043366;28;42970;-80
2023/01/14 09:22:33;;;;;;;;;;;16.40;41.20;;;;;;5040674;28;43098;-76
2023/01/14 09:24:59;;;;;;;;;;;16.50;41.20;;;;;;5042568;28;43752;-78
2023/01/14 09:27:27;;;;;;;;;;;16.50;41.00;;;;;;5045881;28;43914;-77
2023/01/14 09:29:53;;;;;;;;;;;16.40;41.30;;;;;;5043551;28;43012;-84
2023/01/14 09:32:18;;;;;;;;;;;16.40;41.60;;;;;;5041634;28;42958;-79
2023/01/14 09:34:48;;;;;;;;;;;16.40;41.80;;;;;;5041891;28;43251;-75
2023/01/14 09:37:14;;;;;;;;;;;16.50;42.40;;;;;;5033596;28;43264;-80
2023/01/14 09:39:40;;;;;;;;;;;16.50;42.00;;;;;;5031386;28;42956;-76
2023/01/14 09:42:12;;;;;;;;;;;16.50;41.80;;;;;;5038980;28;42954;-76
2023/01/14 09:44:42;;;;;;;;;;;16.50;42.60;;;;;;5039129;28;43051;-78
2023/01/14 09:47:10;;;;;;;;;;;16.50;42.80;;;;;;5046236;28;42955;-78
2023/01/14 09:49:35;;;;;;;;;;;16.50;42.60;;;;;;5042883;28;43502;-79
2023/01/14 09:52:06;;;;;;;;;;;16.50;42.20;;;;;;5050699;28;43261;-78
2023/01/14 09:54:43;;;;;;;;;;;16.50;42.00;;;;;;5035496;28;43023;-80
2023/01/14 09:57:44;;;;;;;;;;;16.50;41.80;;;;;;5038429;28;43074;-76
2023/01/14 10:00:25;;;;;;;;;;;16.50;42.10;;;;;;4942652;28;43008;-75
2023/01/14 10:03:06;;;;;;;;;;;16.50;42.20;;;;;;5030085;28;42990;-76
2023/01/14 10:05:33;;;;;;;;;;;16.60;41.80;;;;;;5043312;28;43747;-76
2023/01/14 10:08:01;;;;;;;;;;;16.60;41.50;;;;;;5043489;28;42873;-77
2023/01/14 10:10:35;;;;;;;;;;;16.60;41.60;;;;;;5043355;28;42987;-76
2023/01/14 10:13:09;;;;;;;;;;;16.60;41.30;;;;;;5043911;28;43602;-76
2023/01/14 10:15:37;;;;;;;;;;;16.60;41.60;;;;;;5043747;28;44052;-76
2023/01/14 10:18:11;;;;;;;;;;;16.50;41.30;;;;;;5043775;28;43043;-76
2023/01/14 10:20:57;;;;;;;;;;;16.50;41.60;;;;;;5043165;28;42954;-75
2023/01/14 10:23:31;;;;;;;;;;;16.50;42.20;;;;;;5043134;28;43831;-76
2023/01/14 10:25:57;;;;;;;;;;;16.60;41.60;;;;;;5042223;28;43624;-77
2023/01/14 10:28:24;;;;;;;;;;;16.60;41.30;;;;;;5043950;28;42983;-75
2023/01/14 10:30:50;;;;;;;;;;;16.60;41.20;;;;;;5042150;28;42930;-76
2023/01/14 10:33:16;;;;;;;;;;;16.50;41.10;;;;;;5042137;28;43006;-76
2023/01/14 10:36:00;;;;;;;;;;;16.50;41.20;;;;;;5043149;28;43417;-76
2023/01/14 10:38:26;;;;;;;;;;;16.50;41.20;;;;;;5042787;28;42994;-75
2023/01/14 10:40:55;;;;;;;;;;;16.60;41.30;;;;;;5054445;28;44008;-75
2023/01/14 10:43:25;;;;;;;;;;;16.60;41.30;;;;;;5043050;28;42880;-77
2023/01/14 10:45:51;;;;;;;;;;;16.60;41.20;;;;;;5043171;28;42823;-75
2023/01/14 10:48:18;;;;;;;;;;;16.60;40.90;;;;;;5043287;28;42942;-75
2023/01/14 10:50:43;;;;;;;;;;;16.50;40.90;;;;;;5042512;28;44546;-76
2023/01/14 10:53:19;;;;;;;;;;;16.50;40.50;;;;;;5046268;28;42999;-78
2023/01/14 10:55:55;;;;;;;;;;;16.60;40.80;;;;;;5046513;28;43454;-76
2023/01/14 10:58:34;;;;;;;;;;;16.50;40.70;;;;;;5046487;28;43092;-78
2023/01/14 11:01:01;;;;;;;;;;;16.50;41.10;;;;;;5046702;28;43032;-78
2023/01/14 11:03:28;;;;;;;;;;;16.60;41.30;;;;;;5031099;28;42992;-78
2023/01/14 11:06:05;;;;;;;;;;;16.60;41.60;;;;;;5043616;28;43978;-77
2023/01/14 11:08:31;;;;;;;;;;;16.30;41.30;;;;;;5039354;28;42883;-78
2023/01/14 11:11:02;;;;;;;;;;;16.50;41.60;;;;;;5043332;28;43126;-77
2023/01/14 11:13:31;;;;;;;;;;;16.50;41.70;;;;;;5049428;28;43045;-76
2023/01/14 11:15:57;;;;;;;;;;;16.50;42.10;;;;;;5062190;28;42958;-80
2023/01/14 11:18:32;;;;;;;;;;;16.60;42.50;;;;;;5044603;28;43808;-74
2023/01/14 11:21:01;;;;;;;;;;;16.60;42.40;;;;;;5049780;28;43219;-76
2023/01/14 11:23:34;;;;;;;;;;;16.60;42.80;;;;;;5048028;28;43044;-75
2023/01/14 11:26:10;;;;;;;;;;;16.60;42.60;;;;;;5043977;28;43930;-75
2023/01/14 11:28:37;;;;;;;;;;;16.60;42.70;;;;;;5046662;28;43395;-75
2023/01/14 11:31:03;;;;;;;;;;;16.60;42.80;;;;;;5052302;28;43477;-76
2023/01/14 11:33:29;;;;;;;;;;;16.60;43.10;;;;;;5055787;28;42993;-76
2023/01/14 11:35:55;;;;;;;;;;;16.60;43.10;;;;;;5046809;28;43362;-76
2023/01/14 11:38:25;;;;;;;;;;;16.60;43.90;;;;;;5052621;28;43009;-76
2023/01/14 11:43:50;;;;;;;;;;;16.70;45.60;;;;;;5049480;28;42979;-76
2023/01/14 11:46:16;;;;;;;;;;;16.70;46.10;;;;;;5040694;28;43712;-77
2023/01/14 11:48:42;;;;;;;;;;;16.70;45.90;;;;;;5049667;28;43055;-78
2023/01/14 11:51:16;;;;;;;;;;;16.70;46.10;;;;;;5056526;28;43279;-82
2023/01/14 11:53:42;;;;;;;;;;;16.70;46.30;;;;;;5042100;28;42916;-78
2023/01/14 11:56:11;;;;;;;;;;;16.60;46.70;;;;;;5047360;28;42984;-78
2023/01/14 11:58:36;;;;;;;;;;;16.70;46.80;;;;;;5044753;28;42836;-76
2023/01/14 12:01:11;;;;;;;;;;;16.70;46.60;;;;;;5052374;28;43272;-77
2023/01/14 12:03:47;;;;;;;;;;;16.70;46.80;;;;;;5044028;28;42968;-87
2023/01/14 12:06:15;;;;;;;;;;;16.70;47.10;;;;;;5043231;28;42964;-82
2023/01/14 12:08:43;;;;;;;;;;;16.70;47.30;;;;;;5037833;28;42949;-81
2023/01/14 12:11:14;;;;;;;;;;;16.70;47.20;;;;;;5031674;28;43061;-78
2023/01/14 12:16:49;;;;;;;;;;;16.70;47.70;;;;;;5040474;28;43036;-79
2023/01/14 12:19:34;;;;;;;;;;;16.70;48.00;;;;;;5038839;28;43122;-85
2023/01/14 12:21:59;;;;;;;;;;;16.70;48.30;;;;;;5037116;28;43978;-79
2023/01/14 12:24:31;;;;;;;;;;;16.70;48.30;;;;;;5039700;28;43759;-78
2023/01/14 12:27:00;;;;;;;;;;;16.80;48.70;;;;;;5033045;28;63619;-77
2023/01/14 12:29:29;;;;;;;;;;;16.80;49.20;;;;;;5030480;28;43002;-79
2023/01/14 12:32:01;;;;;;;;;;;16.70;49.90;;;;;;5036136;28;43215;-75
2023/01/14 12:34:38;;;;;;;;;;;16.70;49.20;;;;;;5042789;28;42948;-74
2023/01/14 12:37:15;;;;;;;;;;;16.80;49.40;;;;;;5040372;28;43367;-78
2023/01/14 12:45:46;;;;;;;;;;;16.80;49.50;;;;;;5040501;28;43076;-76
2023/01/14 12:48:16;;;;;;;;;;;16.90;49.70;;;;;;5031857;28;43896;-74
2023/01/14 12:51:10;;;;;;;;;;;16.90;49.80;;;;;;5044133;28;43022;-75
2023/01/14 12:53:43;;;;;;;;;;;16.90;49.90;;;;;;5022929;28;44038;-75
2023/01/14 12:56:15;;;;;;;;;;;16.90;49.80;;;;;;5042475;28;43070;-76
2023/01/14 12:58:42;;;;;;;;;;;16.90;49.70;;;;;;5039439;28;43017;-75
2023/01/14 13:01:12;;;;;;;;;;;16.80;49.50;;;;;;5043230;28;43181;-77
2023/01/14 13:03:43;;;;;;;;;;;16.90;49.60;;;;;;5038649;28;43041;-75
2023/01/14 13:06:10;;;;;;;;;;;16.90;50.40;;;;;;5043557;28;42985;-76
2023/01/14 13:08:37;;;;;;;;;;;16.90;50.70;;;;;;5044105;28;43038;-76
2023/01/14 13:11:03;;;;;;;;;;;16.90;50.80;;;;;;5044614;28;42879;-76
2023/01/14 13:13:30;;;;;;;;;;;16.90;50.70;;;;;;5044787;28;42902;-79
2023/01/14 13:15:57;;;;;;;;;;;16.90;50.70;;;;;;5041956;28;43195;-75
2023/01/14 13:18:34;;;;;;;;;;;16.90;50.70;;;;;;5033847;28;43073;-80
2023/01/14 13:21:01;;;;;;;;;;;16.90;50.70;;;;;;5044758;28;43545;-76
2023/01/14 13:23:35;;;;;;;;;;;16.90;50.70;;;;;;5043814;28;42954;-79
2023/01/14 13:26:00;;;;;;;;;;;16.90;50.70;;;;;;5044572;28;42907;-75
2023/01/14 13:28:26;;;;;;;;;;;16.90;50.70;;;;;;5042843;28;43545;-79
2023/01/14 13:30:56;;;;;;;;;;;16.90;50.80;;;;;;5044216;28;42845;-76
2023/01/14 13:33:24;;;;;;;;;;;17.00;50.80;;;;;;5028607;28;45633;-75
2023/01/14 13:36:02;;;;;;;;;;;17.00;50.80;;;;;;5043156;28;42932;-77
2023/01/14 13:38:29;;;;;;;;;;;17.00;50.90;;;;;;5044112;28;43037;-77
2023/01/14 13:41:06;;;;;;;;;;;17.00;50.90;;;;;;5055352;28;43224;-74
2023/01/14 13:43:51;;;;;;;;;;;17.00;50.90;;;;;;5043757;28;43532;-74
2023/01/14 13:46:20;;;;;;;;;;;17.00;51.00;;;;;;5043390;28;43060;-77
2023/01/14 13:48:51;;;;;;;;;;;17.00;51.10;;;;;;5055901;28;43297;-77
2023/01/14 13:51:18;;;;;;;;;;;17.00;51.10;;;;;;5043466;28;42786;-78
2023/01/14 13:54:10;;;;;;;;;;;17.00;51.10;;;;;;5043534;28;42842;-74
2023/01/14 13:56:41;;;;;;;;;;;17.00;51.20;;;;;;5039925;28;43037;-74
2023/01/14 13:59:14;;;;;;;;;;;17.10;51.20;;;;;;5051019;28;43427;-76
2023/01/14 14:01:39;;;;;;;;;;;17.10;51.30;;;;;;5047914;28;43014;-75
2023/01/14 14:04:05;;;;;;;;;;;17.00;51.40;;;;;;5054205;28;43047;-74
2023/01/14 14:06:31;;;;;;;;;;;17.10;51.60;;;;;;5043908;28;43047;-77
2023/01/14 14:09:00;;;;;;;;;;;17.10;51.50;;;;;;5044495;28;43367;-78
2023/01/14 14:11:27;;;;;;;;;;;17.10;51.50;;;;;;5044181;28;43034;-76
2023/01/14 14:14:07;;;;;;;;;;;17.10;51.50;;;;;;5040428;28;42992;-77
2023/01/14 14:16:37;;;;;;;;;;;17.10;52.00;;;;;;5021797;28;43021;-77
2023/01/14 14:19:09;;;;;;;;;;;17.10;51.60;;;;;;5042785;28;43917;-76
2023/01/14 14:21:38;;;;;;;;;;;17.10;51.70;;;;;;5021489;28;43343;-78
2023/01/14 14:24:06;;;;;;;;;;;17.10;51.80;;;;;;5017180;28;45091;-75
2023/01/14 14:26:33;;;;;;;;;;;17.10;51.50;;;;;;5026308;28;43137;-75
2023/01/14 14:29:09;;;;;;;;;;;17.10;51.40;;;;;;5048418;28;43204;-76
2023/01/14 14:31:37;;;;;;;;;;;17.10;51.60;;;;;;5049036;28;42986;-77
2023/01/14 14:34:09;;;;;;;;;;;17.20;51.80;;;;;;5042146;28;43240;-76
2023/01/14 14:36:36;;;;;;;;;;;17.10;51.60;;;;;;5041487;28;43313;-79
2023/01/14 14:39:02;;;;;;;;;;;17.10;51.90;;;;;;5041682;28;43105;-78
2023/01/14 14:41:36;;;;;;;;;;;17.10;52.30;;;;;;5030775;28;43059;-78
2023/01/14 14:44:16;;;;;;;;;;;17.20;52.10;;;;;;5044918;28;42997;-77
2023/01/14 14:46:42;;;;;;;;;;;17.20;51.80;;;;;;5047256;28;42992;-74
2023/01/14 14:49:11;;;;;;;;;;;17.20;52.00;;;;;;5040181;28;43039;-77
2023/01/14 14:51:42;;;;;;;;;;;15.40;51.10;;;;;;5040872;28;43127;-77
2023/01/14 14:54:23;;;;;;;;;;;17.20;52.10;;;;;;5045244;28;44121;-77
2023/01/14 14:56:48;;;;;;;;;;;17.20;52.30;;;;;;5047115;28;42938;-79
2023/01/14 14:59:14;;;;;;;;;;;17.20;52.30;;;;;;5045207;28;43196;-78
2023/01/14 15:01:39;;;;;;;;;;;17.20;52.30;;;;;;5047760;28;43001;-79
2023/01/14 15:04:05;;;;;;;;;;;17.20;52.40;;;;;;5042977;28;42982;-81